sensor_id;sensor_type;location;lat;lon;timestamp;temperature;humidity
6764;DHT22;47432;48.760;9.178;2023-08-06T00:00:25;16.90;99.90
6764;DHT22;47432;48.760;9.178;2023-08-06T00:02:51;16.90;99.90
6764;DHT22;47432;48.760;9.178;2023-08-06T00:05:16;16.90;99.90
6764;DHT22;47432;48.760;9.178;2023-08-06T00:07:49;16.90;99.90
6764;DHT22;47432;48.760;9.178;2023-08-06T00:10:16;16.80;99.90
6764;DHT22;47432;48.760;9.178;2023-08-06T00:12:45;16.80;99.90
6764;DHT22;47432;48.760;9.178;2023-08-06T00:15:11;16.70;99.90
6764;DHT22;47432;48.760;9.178;2023-08-06T00:17:38;16.60;99.90
6764;DHT22;47432;48.760;9.178;2023-08-06T00:20:05;16.50;99.90
6764;DHT22;47432;48.760;9.178;2023-08-06T00:22:38;16.40;99.90
6764;DHT22;47432;48.760;9.178;2023-08-06T00:25:07;16.40;99.90
6764;DHT22;47432;48.760;9.178;2023-08-06T00:27:33;16.20;99.90
6764;DHT22;47432;48.760;9.178;2023-08-06T00:29:59;16.20;99.90
6764;DHT22;47432;48.760;9.178;2023-08-06T00:32:24;16.10;99.90
6764;DHT22;47432;48.760;9.178;2023-08-06T00:34:50;16.00;99.90
6764;DHT22;47432;48.760;9.178;2023-08-06T00:37:16;15.90;99.90
6764;DHT22;47432;48.760;9.178;2023-08-06T00:39:43;15.90;99.90
6764;DHT22;47432;48.760;9.178;2023-08-06T00:42:09;15.90;99.90
6764;DHT22;47432;48.760;9.178;2023-08-06T00:44:36;15.70;99.90
6764;DHT22;47432;48.760;9.178;2023-08-06T00:47:02;15.70;99.90
6764;DHT22;47432;48.760;9.178;2023-08-06T00:49:31;15.70;99.90
6764;DHT22;47432;48.760;9.178;2023-08-06T00:51:57;15.60;99.90
6764;DHT22;47432;48.760;9.178;2023-08-06T00:54:25;15.60;99.90
6764;DHT22;47432;48.760;9.178;2023-08-06T00:56:54;15.60;99.90
6764;DHT22;47432;48.760;9.178;2023-08-06T00:59:20;15.60;99.90
6764;DHT22;47432;48.760;9.178;2023-08-06T01:01:46;15.50;99.90
6764;DHT22;47432;48.760;9.178;2023-08-06T01:04:12;15.50;99.90
6764;DHT22;47432;48.760;9.178;2023-08-06T01:12:14;15.30;99.90
6764;DHT22;47432;48.760;9.178;2023-08-06T01:17:52;15.30;99.90
6764;DHT22;47432;48.760;9.178;2023-08-06T01:22:44;15.30;99.90
6764;DHT22;47432;48.760;9.178;2023-08-06T01:25:10;15.30;99.90
6764;DHT22;47432;48.760;9.178;2023-08-06T01:27:49;15.40;99.90
6764;DHT22;47432;48.760;9.178;2023-08-06T01:30:25;15.40;99.90
6764;DHT22;47432;48.760;9.178;2023-08-06T01:32:58;15.50;99.90
6764;DHT22;47432;48.760;9.178;2023-08-06T01:35:27;15.50;99.90
6764;DHT22;47432;48.760;9.178;2023-08-06T01:37:54;15.50;99.90
6764;DHT22;47432;48.760;9.178;2023-08-06T01:40:21;15.50;99.90
6764;DHT22;47432;48.760;9.178;2023-08-06T01:42:47;15.30;99.90
6764;DHT22;47432;48.760;9.178;2023-08-06T01:45:13;15.50;99.90
6764;DHT22;47432;48.760;9.178;2023-08-06T01:47:41;15.60;99.90
6764;DHT22;47432;48.760;9.178;2023-08-06T01:50:07;15.60;99.90
6764;DHT22;47432;48.760;9.178;2023-08-06T01:52:33;15.60;99.90
6764;DHT22;47432;48.760;9.178;2023-08-06T01:54:58;15.60;99.90
6764;DHT22;47432;48.760;9.178;2023-08-06T01:57:24;15.60;99.90
6764;DHT22;47432;48.760;9.178;2023-08-06T01:59:50;15.40;99.90
6764;DHT22;47432;48.760;9.178;2023-08-06T02:02:16;15.40;99.90
6764;DHT22;47432;48.760;9.178;2023-08-06T02:04:41;15.40;99.90
6764;DHT22;47432;48.760;9.178;2023-08-06T02:07:07;15.30;99.90
6764;DHT22;47432;48.760;9.178;2023-08-06T02:09:35;15.40;99.90
6764;DHT22;47432;48.760;9.178;2023-08-06T02:12:01;15.20;99.90
6764;DHT22;47432;48.760;9.178;2023-08-06T02:14:28;15.20;99.90
6764;DHT22;47432;48.760;9.178;2023-08-06T02:16:53;17.70;99.90
6764;DHT22;47432;48.760;9.178;2023-08-06T02:19:19;15.10;99.90
6764;DHT22;47432;48.760;9.178;2023-08-06T02:21:45;15.00;99.90
6764;DHT22;47432;48.760;9.178;2023-08-06T02:24:10;15.00;99.90
6764;DHT22;47432;48.760;9.178;2023-08-06T02:26:36;14.90;99.90
6764;DHT22;47432;48.760;9.178;2023-08-06T02:31:28;14.90;99.90
6764;DHT22;47432;48.760;9.178;2023-08-06T02:33:54;14.80;99.90
6764;DHT22;47432;48.760;9.178;2023-08-06T02:36:19;14.80;99.90
6764;DHT22;47432;48.760;9.178;2023-08-06T02:38:45;14.80;99.90
6764;DHT22;47432;48.760;9.178;2023-08-06T02:41:11;14.80;99.90
6764;DHT22;47432;48.760;9.178;2023-08-06T02:43:36;14.80;99.90
6764;DHT22;47432;48.760;9.178;2023-08-06T02:46:02;14.70;99.90
6764;DHT22;47432;48.760;9.178;2023-08-06T02:48:28;14.70;99.90
6764;DHT22;47432;48.760;9.178;2023-08-06T02:50:57;14.60;99.90
6764;DHT22;47432;48.760;9.178;2023-08-06T02:53:24;14.60;99.90
6764;DHT22;47432;48.760;9.178;2023-08-06T02:55:50;14.60;99.90
6764;DHT22;47432;48.760;9.178;2023-08-06T02:58:17;14.60;99.90
6764;DHT22;47432;48.760;9.178;2023-08-06T03:00:58;14.70;99.90
6764;DHT22;47432;48.760;9.178;2023-08-06T03:03:29;14.70;99.90
6764;DHT22;47432;48.760;9.178;2023-08-06T03:05:55;14.70;99.90
6764;DHT22;47432;48.760;9.178;2023-08-06T03:08:21;14.70;99.90
6764;DHT22;47432;48.760;9.178;2023-08-06T03:10:48;14.70;99.90
6764;DHT22;47432;48.760;9.178;2023-08-06T03:13:15;14.70;99.90
6764;DHT22;47432;48.760;9.178;2023-08-06T03:15:41;14.80;99.90
6764;DHT22;47432;48.760;9.178;2023-08-06T03:18:07;14.80;99.90
6764;DHT22;47432;48.760;9.178;2023-08-06T03:20:33;14.90;99.90
6764;DHT22;47432;48.760;9.178;2023-08-06T03:22:59;14.90;99.90
6764;DHT22;47432;48.760;9.178;2023-08-06T03:25:25;15.00;99.90
6764;DHT22;47432;48.760;9.178;2023-08-06T03:27:51;15.00;99.90
6764;DHT22;47432;48.760;9.178;2023-08-06T03:30:19;15.10;99.90
6764;DHT22;47432;48.760;9.178;2023-08-06T03:32:45;15.10;99.90
6764;DHT22;47432;48.760;9.178;2023-08-06T03:35:12;15.10;99.90
6764;DHT22;47432;48.760;9.178;2023-08-06T03:37:41;15.10;99.90
6764;DHT22;47432;48.760;9.178;2023-08-06T03:40:07;15.20;99.90
6764;DHT22;47432;48.760;9.178;2023-08-06T03:42:33;15.30;99.90
6764;DHT22;47432;48.760;9.178;2023-08-06T03:47:25;15.30;99.90
6764;DHT22;47432;48.760;9.178;2023-08-06T03:49:54;15.30;99.90
6764;DHT22;47432;48.760;9.178;2023-08-06T03:52:19;15.40;99.90
6764;DHT22;47432;48.760;9.178;2023-08-06T03:54:45;15.50;99.90
6764;DHT22;47432;48.760;9.178;2023-08-06T03:57:11;15.50;99.90
6764;DHT22;47432;48.760;9.178;2023-08-06T03:59:36;15.50;99.90
6764;DHT22;47432;48.760;9.178;2023-08-06T04:02:02;15.50;99.90
6764;DHT22;47432;48.760;9.178;2023-08-06T04:04:31;15.50;99.90
6764;DHT22;47432;48.760;9.178;2023-08-06T04:06:56;15.50;99.90
6764;DHT22;47432;48.760;9.178;2023-08-06T04:09:22;15.60;99.90
6764;DHT22;47432;48.760;9.178;2023-08-06T04:11:50;15.60;99.90
6764;DHT22;47432;48.760;9.178;2023-08-06T04:14:16;15.60;99.90
6764;DHT22;47432;48.760;9.178;2023-08-06T04:16:42;15.60;99.90
6764;DHT22;47432;48.760;9.178;2023-08-06T04:19:07;15.70;99.90
6764;DHT22;47432;48.760;9.178;2023-08-06T04:21:33;15.60;99.90
6764;DHT22;47432;48.760;9.178;2023-08-06T04:23:59;15.60;99.90
6764;DHT22;47432;48.760;9.178;2023-08-06T04:26:25;15.70;99.90
6764;DHT22;47432;48.760;9.178;2023-08-06T04:28:51;15.70;99.90
6764;DHT22;47432;48.760;9.178;2023-08-06T04:31:16;15.70;99.90
6764;DHT22;47432;48.760;9.178;2023-08-06T04:33:42;15.80;99.90
6764;DHT22;47432;48.760;9.178;2023-08-06T04:36:08;15.80;99.90
6764;DHT22;47432;48.760;9.178;2023-08-06T04:41:02;15.90;99.90
6764;DHT22;47432;48.760;9.178;2023-08-06T04:43:29;15.90;99.90
6764;DHT22;47432;48.760;9.178;2023-08-06T04:45:55;16.00;99.90
6764;DHT22;47432;48.760;9.178;2023-08-06T04:48:22;16.00;99.90
6764;DHT22;47432;48.760;9.178;2023-08-06T04:50:49;16.10;99.90
6764;DHT22;47432;48.760;9.178;2023-08-06T04:53:15;15.90;99.90
6764;DHT22;47432;48.760;9.178;2023-08-06T04:55:41;16.00;99.90
6764;DHT22;47432;48.760;9.178;2023-08-06T04:58:09;16.00;99.90
6764;DHT22;47432;48.760;9.178;2023-08-06T05:00:35;16.10;99.90
6764;DHT22;47432;48.760;9.178;2023-08-06T05:05:28;16.00;99.90
6764;DHT22;47432;48.760;9.178;2023-08-06T05:07:55;16.10;99.90
6764;DHT22;47432;48.760;9.178;2023-08-06T05:10:24;16.10;99.90
6764;DHT22;47432;48.760;9.178;2023-08-06T05:12:51;16.10;99.90
6764;DHT22;47432;48.760;9.178;2023-08-06T05:15:16;16.20;99.90
6764;DHT22;47432;48.760;9.178;2023-08-06T05:17:42;16.20;99.90
6764;DHT22;47432;48.760;9.178;2023-08-06T05:20:08;16.10;99.90
6764;DHT22;47432;48.760;9.178;2023-08-06T05:22:34;16.00;99.90
6764;DHT22;47432;48.760;9.178;2023-08-06T05:25:00;16.00;99.90
6764;DHT22;47432;48.760;9.178;2023-08-06T05:27:26;16.10;99.90
6764;DHT22;47432;48.760;9.178;2023-08-06T05:29:55;16.10;99.90
6764;DHT22;47432;48.760;9.178;2023-08-06T05:32:21;16.20;99.90
6764;DHT22;47432;48.760;9.178;2023-08-06T05:34:47;16.30;99.90
6764;DHT22;47432;48.760;9.178;2023-08-06T05:37:13;16.40;99.90
6764;DHT22;47432;48.760;9.178;2023-08-06T05:39:41;16.70;99.90
6764;DHT22;47432;48.760;9.178;2023-08-06T05:42:07;16.60;99.90
6764;DHT22;47432;48.760;9.178;2023-08-06T05:44:33;16.50;99.90
6764;DHT22;47432;48.760;9.178;2023-08-06T05:51:51;16.60;99.90
6764;DHT22;47432;48.760;9.178;2023-08-06T05:54:18;16.60;99.90
6764;DHT22;47432;48.760;9.178;2023-08-06T05:56:44;16.50;99.90
6764;DHT22;47432;48.760;9.178;2023-08-06T05:59:10;16.60;99.90
6764;DHT22;47432;48.760;9.178;2023-08-06T06:01:36;16.60;99.90
6764;DHT22;47432;48.760;9.178;2023-08-06T06:04:02;16.60;99.90
6764;DHT22;47432;48.760;9.178;2023-08-06T06:06:27;16.70;99.90
6764;DHT22;47432;48.760;9.178;2023-08-06T06:08:53;16.60;99.90
6764;DHT22;47432;48.760;9.178;2023-08-06T06:11:19;16.20;99.90
6764;DHT22;47432;48.760;9.178;2023-08-06T06:13:49;16.10;99.90
6764;DHT22;47432;48.760;9.178;2023-08-06T06:16:16;16.20;99.90
6764;DHT22;47432;48.760;9.178;2023-08-06T06:18:41;16.20;99.90
6764;DHT22;47432;48.760;9.178;2023-08-06T06:21:07;16.30;99.90
6764;DHT22;47432;48.760;9.178;2023-08-06T06:23:33;16.10;99.90
6764;DHT22;47432;48.760;9.178;2023-08-06T06:25:59;16.10;99.90
6764;DHT22;47432;48.760;9.178;2023-08-06T06:28:25;16.40;99.90
6764;DHT22;47432;48.760;9.178;2023-08-06T06:30:51;16.40;99.90
6764;DHT22;47432;48.760;9.178;2023-08-06T06:33:17;16.40;99.90
6764;DHT22;47432;48.760;9.178;2023-08-06T06:35:43;16.70;99.90
6764;DHT22;47432;48.760;9.178;2023-08-06T06:38:08;16.50;99.90
6764;DHT22;47432;48.760;9.178;2023-08-06T06:40:36;16.60;99.90
6764;DHT22;47432;48.760;9.178;2023-08-06T06:43:02;16.60;99.90
6764;DHT22;47432;48.760;9.178;2023-08-06T06:45:28;16.60;99.90
6764;DHT22;47432;48.760;9.178;2023-08-06T06:47:54;16.60;99.90
6764;DHT22;47432;48.760;9.178;2023-08-06T06:50:20;16.70;99.90
6764;DHT22;47432;48.760;9.178;2023-08-06T06:52:45;16.80;99.90
6764;DHT22;47432;48.760;9.178;2023-08-06T06:55:11;17.10;99.90
6764;DHT22;47432;48.760;9.178;2023-08-06T06:57:37;17.10;99.90
6764;DHT22;47432;48.760;9.178;2023-08-06T07:00:03;17.10;99.90
6764;DHT22;47432;48.760;9.178;2023-08-06T07:02:31;17.00;99.90
6764;DHT22;47432;48.760;9.178;2023-08-06T07:04:56;17.10;99.90
6764;DHT22;47432;48.760;9.178;2023-08-06T07:07:22;17.10;99.90
6764;DHT22;47432;48.760;9.178;2023-08-06T07:09:48;16.90;99.90
6764;DHT22;47432;48.760;9.178;2023-08-06T07:12:14;16.80;99.90
6764;DHT22;47432;48.760;9.178;2023-08-06T07:14:39;16.50;99.90
6764;DHT22;47432;48.760;9.178;2023-08-06T07:17:05;16.50;99.90
6764;DHT22;47432;48.760;9.178;2023-08-06T07:19:31;16.40;99.90
6764;DHT22;47432;48.760;9.178;2023-08-06T07:21:56;16.40;99.90
6764;DHT22;47432;48.760;9.178;2023-08-06T07:24:22;16.40;99.90
6764;DHT22;47432;48.760;9.178;2023-08-06T07:26:48;16.60;99.90
6764;DHT22;47432;48.760;9.178;2023-08-06T07:29:14;16.50;99.90
6764;DHT22;47432;48.760;9.178;2023-08-06T07:31:45;16.40;99.90
6764;DHT22;47432;48.760;9.178;2023-08-06T07:34:10;16.40;99.90
6764;DHT22;47432;48.760;9.178;2023-08-06T07:36:37;16.30;99.90
6764;DHT22;47432;48.760;9.178;2023-08-06T07:39:03;16.20;99.90
6764;DHT22;47432;48.760;9.178;2023-08-06T07:41:31;16.30;99.90
6764;DHT22;47432;48.760;9.178;2023-08-06T07:43:59;16.30;99.90
6764;DHT22;47432;48.760;9.178;2023-08-06T07:46:25;16.40;99.90
6764;DHT22;47432;48.760;9.178;2023-08-06T07:48:51;16.40;99.90
6764;DHT22;47432;48.760;9.178;2023-08-06T07:51:16;16.40;99.90
6764;DHT22;47432;48.760;9.178;2023-08-06T07:53:42;16.20;99.90
6764;DHT22;47432;48.760;9.178;2023-08-06T07:56:08;16.40;99.90
6764;DHT22;47432;48.760;9.178;2023-08-06T07:58:34;16.60;99.90
6764;DHT22;47432;48.760;9.178;2023-08-06T08:00:59;16.60;99.90
6764;DHT22;47432;48.760;9.178;2023-08-06T08:03:25;16.80;99.90
6764;DHT22;47432;48.760;9.178;2023-08-06T08:05:54;17.00;99.90
6764;DHT22;47432;48.760;9.178;2023-08-06T08:08:24;16.50;99.90
6764;DHT22;47432;48.760;9.178;2023-08-06T08:10:50;16.70;99.90
6764;DHT22;47432;48.760;9.178;2023-08-06T08:13:16;16.80;99.90
6764;DHT22;47432;48.760;9.178;2023-08-06T08:15:41;16.90;99.90
6764;DHT22;47432;48.760;9.178;2023-08-06T08:20:33;17.10;99.90
6764;DHT22;47432;48.760;9.178;2023-08-06T08:23:01;17.30;99.90
6764;DHT22;47432;48.760;9.178;2023-08-06T08:25:27;17.70;99.90
6764;DHT22;47432;48.760;9.178;2023-08-06T08:27:54;17.60;99.90
6764;DHT22;47432;48.760;9.178;2023-08-06T08:30:21;17.80;99.90
6764;DHT22;47432;48.760;9.178;2023-08-06T08:32:47;18.00;99.90
6764;DHT22;47432;48.760;9.178;2023-08-06T08:35:14;18.10;99.90
6764;DHT22;47432;48.760;9.178;2023-08-06T08:37:41;18.30;99.90
6764;DHT22;47432;48.760;9.178;2023-08-06T08:40:08;17.80;99.90
6764;DHT22;47432;48.760;9.178;2023-08-06T08:42:36;17.50;99.90
6764;DHT22;47432;48.760;9.178;2023-08-06T08:45:06;17.30;99.90
6764;DHT22;47432;48.760;9.178;2023-08-06T08:47:42;17.30;99.90
6764;DHT22;47432;48.760;9.178;2023-08-06T08:50:11;17.30;99.90
6764;DHT22;47432;48.760;9.178;2023-08-06T08:52:38;17.20;99.90
6764;DHT22;47432;48.760;9.178;2023-08-06T08:55:08;17.40;99.90
6764;DHT22;47432;48.760;9.178;2023-08-06T08:57:34;17.60;99.90
6764;DHT22;47432;48.760;9.178;2023-08-06T09:00:00;17.50;99.90
6764;DHT22;47432;48.760;9.178;2023-08-06T09:02:28;17.80;99.90
6764;DHT22;47432;48.760;9.178;2023-08-06T09:04:57;18.00;99.90
6764;DHT22;47432;48.760;9.178;2023-08-06T09:07:27;18.20;99.90
6764;DHT22;47432;48.760;9.178;2023-08-06T09:09:53;18.40;99.90
6764;DHT22;47432;48.760;9.178;2023-08-06T09:12:19;18.20;99.90
6764;DHT22;47432;48.760;9.178;2023-08-06T09:14:46;18.20;99.90
6764;DHT22;47432;48.760;9.178;2023-08-06T09:17:12;18.50;99.90
6764;DHT22;47432;48.760;9.178;2023-08-06T09:19:39;18.80;99.90
6764;DHT22;47432;48.760;9.178;2023-08-06T09:22:11;18.80;99.90
6764;DHT22;47432;48.760;9.178;2023-08-06T09:24:39;19.00;99.90
6764;DHT22;47432;48.760;9.178;2023-08-06T09:27:11;19.20;99.90
6764;DHT22;47432;48.760;9.178;2023-08-06T09:29:45;19.20;99.90
6764;DHT22;47432;48.760;9.178;2023-08-06T09:32:14;19.20;99.90
6764;DHT22;47432;48.760;9.178;2023-08-06T09:34:42;19.20;99.90
6764;DHT22;47432;48.760;9.178;2023-08-06T09:37:16;19.20;99.90
6764;DHT22;47432;48.760;9.178;2023-08-06T09:39:42;18.80;99.90
6764;DHT22;47432;48.760;9.178;2023-08-06T09:42:07;18.70;99.90
6764;DHT22;47432;48.760;9.178;2023-08-06T09:44:34;18.40;99.90
6764;DHT22;47432;48.760;9.178;2023-08-06T09:47:02;18.30;99.90
6764;DHT22;47432;48.760;9.178;2023-08-06T09:49:41;18.60;99.90
6764;DHT22;47432;48.760;9.178;2023-08-06T09:52:14;18.90;99.90
6764;DHT22;47432;48.760;9.178;2023-08-06T09:54:43;18.80;99.90
6764;DHT22;47432;48.760;9.178;2023-08-06T09:57:09;18.80;99.90
6764;DHT22;47432;48.760;9.178;2023-08-06T09:59:38;18.80;99.90
6764;DHT22;47432;48.760;9.178;2023-08-06T10:02:12;18.80;99.90
6764;DHT22;47432;48.760;9.178;2023-08-06T10:04:39;18.80;99.90
6764;DHT22;47432;48.760;9.178;2023-08-06T10:07:07;18.10;99.90
6764;DHT22;47432;48.760;9.178;2023-08-06T10:09:34;18.30;99.90
6764;DHT22;47432;48.760;9.178;2023-08-06T10:12:00;18.00;99.90
6764;DHT22;47432;48.760;9.178;2023-08-06T10:14:29;18.20;99.90
6764;DHT22;47432;48.760;9.178;2023-08-06T10:17:00;17.90;99.90
6764;DHT22;47432;48.760;9.178;2023-08-06T10:19:29;18.00;99.90
6764;DHT22;47432;48.760;9.178;2023-08-06T10:22:12;17.70;99.90
6764;DHT22;47432;48.760;9.178;2023-08-06T10:24:58;17.80;99.90
6764;DHT22;47432;48.760;9.178;2023-08-06T10:27:41;17.20;99.90
6764;DHT22;47432;48.760;9.178;2023-08-06T10:30:26;17.20;99.90
6764;DHT22;47432;48.760;9.178;2023-08-06T10:33:12;17.30;99.90
6764;DHT22;47432;48.760;9.178;2023-08-06T10:35:42;17.40;99.90
6764;DHT22;47432;48.760;9.178;2023-08-06T10:38:20;17.60;99.90
6764;DHT22;47432;48.760;9.178;2023-08-06T10:41:02;17.70;99.90
6764;DHT22;47432;48.760;9.178;2023-08-06T10:43:31;17.50;99.90
6764;DHT22;47432;48.760;9.178;2023-08-06T10:46:00;17.30;99.90
6764;DHT22;47432;48.760;9.178;2023-08-06T10:48:41;17.50;99.90
6764;DHT22;47432;48.760;9.178;2023-08-06T10:51:12;17.70;99.90
6764;DHT22;47432;48.760;9.178;2023-08-06T10:53:42;18.00;99.90
6764;DHT22;47432;48.760;9.178;2023-08-06T10:56:20;17.50;99.90
6764;DHT22;47432;48.760;9.178;2023-08-06T10:58:48;17.60;99.90
6764;DHT22;47432;48.760;9.178;2023-08-06T11:01:15;17.10;99.90
6764;DHT22;47432;48.760;9.178;2023-08-06T11:03:46;17.10;99.90
6764;DHT22;47432;48.760;9.178;2023-08-06T11:06:18;17.10;99.90
6764;DHT22;47432;48.760;9.178;2023-08-06T11:08:49;17.20;99.90
6764;DHT22;47432;48.760;9.178;2023-08-06T11:11:17;17.20;99.90
6764;DHT22;47432;48.760;9.178;2023-08-06T11:13:44;17.20;99.90
6764;DHT22;47432;48.760;9.178;2023-08-06T11:16:13;16.70;99.90
6764;DHT22;47432;48.760;9.178;2023-08-06T11:18:41;16.80;99.90
6764;DHT22;47432;48.760;9.178;2023-08-06T11:21:12;16.90;99.90
6764;DHT22;47432;48.760;9.178;2023-08-06T11:23:41;16.80;99.90
6764;DHT22;47432;48.760;9.178;2023-08-06T11:26:07;16.60;99.90
6764;DHT22;47432;48.760;9.178;2023-08-06T11:28:33;16.60;99.90
6764;DHT22;47432;48.760;9.178;2023-08-06T11:31:01;16.60;99.90
6764;DHT22;47432;48.760;9.178;2023-08-06T11:33:29;17.00;99.90
6764;DHT22;47432;48.760;9.178;2023-08-06T11:35:55;17.00;99.90
6764;DHT22;47432;48.760;9.178;2023-08-06T11:38:25;16.90;99.90
6764;DHT22;47432;48.760;9.178;2023-08-06T11:40:52;16.50;99.90
6764;DHT22;47432;48.760;9.178;2023-08-06T11:43:19;16.50;99.90
6764;DHT22;47432;48.760;9.178;2023-08-06T11:45:48;16.50;99.90
6764;DHT22;47432;48.760;9.178;2023-08-06T11:48:15;16.50;99.90
6764;DHT22;47432;48.760;9.178;2023-08-06T11:53:07;16.10;99.90
6764;DHT22;47432;48.760;9.178;2023-08-06T11:55:32;15.90;99.90
6764;DHT22;47432;48.760;9.178;2023-08-06T11:58:03;15.90;99.90
6764;DHT22;47432;48.760;9.178;2023-08-06T12:00:31;16.00;99.90
6764;DHT22;47432;48.760;9.178;2023-08-06T12:02:57;15.70;99.90
6764;DHT22;47432;48.760;9.178;2023-08-06T12:05:28;15.70;99.90
6764;DHT22;47432;48.760;9.178;2023-08-06T12:07:56;15.40;99.90
6764;DHT22;47432;48.760;9.178;2023-08-06T12:10:27;15.20;99.90
6764;DHT22;47432;48.760;9.178;2023-08-06T12:12:54;15.20;99.90
6764;DHT22;47432;48.760;9.178;2023-08-06T12:15:21;15.20;99.90
6764;DHT22;47432;48.760;9.178;2023-08-06T12:17:47;15.30;99.90
6764;DHT22;47432;48.760;9.178;2023-08-06T12:20:13;15.30;99.90
6764;DHT22;47432;48.760;9.178;2023-08-06T12:22:39;15.50;99.90
6764;DHT22;47432;48.760;9.178;2023-08-06T12:25:15;15.40;99.90
6764;DHT22;47432;48.760;9.178;2023-08-06T12:27:43;15.40;99.90
6764;DHT22;47432;48.760;9.178;2023-08-06T12:30:11;15.40;99.90
6764;DHT22;47432;48.760;9.178;2023-08-06T12:32:37;15.50;99.90
6764;DHT22;47432;48.760;9.178;2023-08-06T12:35:04;15.60;99.90
6764;DHT22;47432;48.760;9.178;2023-08-06T12:37:30;16.10;99.90
6764;DHT22;47432;48.760;9.178;2023-08-06T12:39:56;16.60;99.90
6764;DHT22;47432;48.760;9.178;2023-08-06T12:42:22;16.60;99.90
6764;DHT22;47432;48.760;9.178;2023-08-06T12:44:51;16.60;99.90
6764;DHT22;47432;48.760;9.178;2023-08-06T12:47:17;16.90;99.90
6764;DHT22;47432;48.760;9.178;2023-08-06T12:49:43;16.90;99.90
6764;DHT22;47432;48.760;9.178;2023-08-06T12:52:09;17.10;99.90
6764;DHT22;47432;48.760;9.178;2023-08-06T12:54:37;17.20;99.90
6764;DHT22;47432;48.760;9.178;2023-08-06T12:57:06;16.80;99.90
6764;DHT22;47432;48.760;9.178;2023-08-06T12:59:32;16.80;99.90
6764;DHT22;47432;48.760;9.178;2023-08-06T13:01:59;16.90;99.90
6764;DHT22;47432;48.760;9.178;2023-08-06T13:04:25;16.90;99.90
6764;DHT22;47432;48.760;9.178;2023-08-06T13:06:51;17.20;99.90
6764;DHT22;47432;48.760;9.178;2023-08-06T13:09:17;17.40;99.90
6764;DHT22;47432;48.760;9.178;2023-08-06T13:11:45;17.30;99.90
6764;DHT22;47432;48.760;9.178;2023-08-06T13:14:13;17.10;99.90
6764;DHT22;47432;48.760;9.178;2023-08-06T13:16:40;16.90;99.90
6764;DHT22;47432;48.760;9.178;2023-08-06T13:19:07;17.10;99.90
6764;DHT22;47432;48.760;9.178;2023-08-06T13:24:24;17.70;99.90
6764;DHT22;47432;48.760;9.178;2023-08-06T13:26:49;17.60;99.90
6764;DHT22;47432;48.760;9.178;2023-08-06T13:29:18;17.50;99.90
6764;DHT22;47432;48.760;9.178;2023-08-06T13:31:44;17.40;99.90
6764;DHT22;47432;48.760;9.178;2023-08-06T13:34:09;17.20;99.90
6764;DHT22;47432;48.760;9.178;2023-08-06T13:36:35;17.30;99.90
6764;DHT22;47432;48.760;9.178;2023-08-06T13:39:01;17.30;99.90
6764;DHT22;47432;48.760;9.178;2023-08-06T13:41:28;17.40;99.90
6764;DHT22;47432;48.760;9.178;2023-08-06T13:43:54;17.60;99.90
6764;DHT22;47432;48.760;9.178;2023-08-06T13:46:20;17.00;99.90
6764;DHT22;47432;48.760;9.178;2023-08-06T13:48:47;17.00;99.90
6764;DHT22;47432;48.760;9.178;2023-08-06T13:51:16;17.00;99.90
6764;DHT22;47432;48.760;9.178;2023-08-06T13:53:44;17.00;99.90
6764;DHT22;47432;48.760;9.178;2023-08-06T13:56:11;16.80;99.90
6764;DHT22;47432;48.760;9.178;2023-08-06T13:58:40;17.10;99.90
6764;DHT22;47432;48.760;9.178;2023-08-06T14:01:06;17.10;99.90
6764;DHT22;47432;48.760;9.178;2023-08-06T14:03:34;17.00;99.90
6764;DHT22;47432;48.760;9.178;2023-08-06T14:06:00;17.00;99.90
6764;DHT22;47432;48.760;9.178;2023-08-06T14:08:26;17.00;99.90
6764;DHT22;47432;48.760;9.178;2023-08-06T14:10:52;17.40;99.90
6764;DHT22;47432;48.760;9.178;2023-08-06T14:13:18;17.50;99.90
6764;DHT22;47432;48.760;9.178;2023-08-06T14:18:15;17.10;99.90
6764;DHT22;47432;48.760;9.178;2023-08-06T14:20:41;17.00;99.90
6764;DHT22;47432;48.760;9.178;2023-08-06T14:23:08;17.10;99.90
6764;DHT22;47432;48.760;9.178;2023-08-06T14:25:34;17.30;99.90
6764;DHT22;47432;48.760;9.178;2023-08-06T14:27:59;17.30;99.90
6764;DHT22;47432;48.760;9.178;2023-08-06T14:30:25;17.20;99.90
6764;DHT22;47432;48.760;9.178;2023-08-06T14:32:51;17.10;99.90
6764;DHT22;47432;48.760;9.178;2023-08-06T14:35:17;17.20;99.90
6764;DHT22;47432;48.760;9.178;2023-08-06T14:37:42;17.70;99.90
6764;DHT22;47432;48.760;9.178;2023-08-06T14:40:11;17.70;99.90
6764;DHT22;47432;48.760;9.178;2023-08-06T14:42:39;17.70;99.90
6764;DHT22;47432;48.760;9.178;2023-08-06T14:45:08;17.40;99.90
6764;DHT22;47432;48.760;9.178;2023-08-06T14:47:34;17.30;99.90
6764;DHT22;47432;48.760;9.178;2023-08-06T14:50:00;16.40;99.90
6764;DHT22;47432;48.760;9.178;2023-08-06T14:52:26;16.50;99.90
6764;DHT22;47432;48.760;9.178;2023-08-06T14:54:52;16.60;99.90
6764;DHT22;47432;48.760;9.178;2023-08-06T14:57:22;16.70;99.90
6764;DHT22;47432;48.760;9.178;2023-08-06T14:59:53;16.70;99.90
6764;DHT22;47432;48.760;9.178;2023-08-06T15:02:19;16.70;99.90
6764;DHT22;47432;48.760;9.178;2023-08-06T15:04:45;16.30;99.90
6764;DHT22;47432;48.760;9.178;2023-08-06T15:07:11;15.90;99.90
6764;DHT22;47432;48.760;9.178;2023-08-06T15:09:36;16.00;99.90
6764;DHT22;47432;48.760;9.178;2023-08-06T15:12:05;16.40;99.90
6764;DHT22;47432;48.760;9.178;2023-08-06T15:14:31;16.50;99.90
6764;DHT22;47432;48.760;9.178;2023-08-06T15:16:56;17.70;99.90
6764;DHT22;47432;48.760;9.178;2023-08-06T15:19:23;17.80;99.90
6764;DHT22;47432;48.760;9.178;2023-08-06T15:24:16;20.00;99.90
6764;DHT22;47432;48.760;9.178;2023-08-06T15:26:42;21.30;99.90
6764;DHT22;47432;48.760;9.178;2023-08-06T15:29:07;21.70;99.90
6764;DHT22;47432;48.760;9.178;2023-08-06T15:31:38;21.30;99.90
6764;DHT22;47432;48.760;9.178;2023-08-06T15:34:05;21.50;99.90
6764;DHT22;47432;48.760;9.178;2023-08-06T15:36:33;22.10;99.90
6764;DHT22;47432;48.760;9.178;2023-08-06T15:39:02;21.90;99.90
6764;DHT22;47432;48.760;9.178;2023-08-06T15:41:29;22.00;99.90
6764;DHT22;47432;48.760;9.178;2023-08-06T15:43:55;22.40;99.90
6764;DHT22;47432;48.760;9.178;2023-08-06T15:46:21;22.30;99.90
6764;DHT22;47432;48.760;9.178;2023-08-06T15:48:47;22.00;99.90
6764;DHT22;47432;48.760;9.178;2023-08-06T15:51:12;22.30;99.90
6764;DHT22;47432;48.760;9.178;2023-08-06T15:53:41;23.00;99.90
6764;DHT22;47432;48.760;9.178;2023-08-06T15:56:08;22.60;99.90
6764;DHT22;47432;48.760;9.178;2023-08-06T15:58:34;22.90;99.90
6764;DHT22;47432;48.760;9.178;2023-08-06T16:01:00;22.60;99.90
6764;DHT22;47432;48.760;9.178;2023-08-06T16:03:25;20.70;99.90
6764;DHT22;47432;48.760;9.178;2023-08-06T16:05:51;20.10;99.90
6764;DHT22;47432;48.760;9.178;2023-08-06T16:08:17;20.00;99.90
6764;DHT22;47432;48.760;9.178;2023-08-06T16:10:42;19.90;99.90
6764;DHT22;47432;48.760;9.178;2023-08-06T16:13:10;19.90;99.90
6764;DHT22;47432;48.760;9.178;2023-08-06T16:15:37;20.70;99.90
6764;DHT22;47432;48.760;9.178;2023-08-06T16:18:03;18.40;99.90
6764;DHT22;47432;48.760;9.178;2023-08-06T16:20:29;20.70;99.90
6764;DHT22;47432;48.760;9.178;2023-08-06T16:22:57;20.70;99.90